Terminal Aerodrome Forecast
Issued by NWS Wilmington, OH

Current Version | Previous Version | Graphics & Text | Print | Product List | Glossary On
Versions: 1 2 3 4 5 6 7 8 9 10 11 12 13 14 15 16 17 18 19 20 21 22 23 24 25 26 27 28 29 30 31 32 33 34 35
292
FTUS41 KILN 291130
TAFILN
TAF
KILN 291130Z 2912/3012 29006KT 1SM BR OVC004
      TEMPO 2912/2914 1/2SM FG OVC002
     FM291400 29006KT 4SM BR OVC006
     FM291600 29007KT P6SM BKN015
     FM291900 32008KT P6SM BKN035
     FM292300 35007KT P6SM SCT045 BKN250
     FM300600 06006KT P6SM VCSH SCT040 OVC100=

USA.gov is the U.S. government's official web portal to all federal, state and local government web resources and services.